createdAt,value
2017-09-30T00:01:00.345Z,99.90
2017-09-30T00:03:28.164Z,99.90
2017-09-30T00:05:56.691Z,99.90
2017-09-30T00:08:24.463Z,99.90
2017-09-30T00:10:52.340Z,99.90
2017-09-30T00:13:20.099Z,99.90
2017-09-30T00:15:47.856Z,99.90
2017-09-30T00:18:15.664Z,99.90
2017-09-30T00:20:43.427Z,99.90
2017-09-30T00:23:11.187Z,99.90
2017-09-30T00:25:39.019Z,99.90
2017-09-30T00:28:06.772Z,99.90
2017-09-30T00:30:34.532Z,99.90
2017-09-30T00:33:02.347Z,99.90
2017-09-30T00:35:30.103Z,99.90
2017-09-30T00:37:57.863Z,99.90
2017-09-30T00:40:25.685Z,99.90
2017-09-30T00:42:53.449Z,99.90
2017-09-30T00:45:21.213Z,99.90
2017-09-30T00:47:49.034Z,99.90
2017-09-30T00:50:16.792Z,99.90
2017-09-30T00:52:44.588Z,99.90
2017-09-30T00:55:12.432Z,99.90
2017-09-30T00:57:40.195Z,99.90
2017-09-30T01:00:07.963Z,99.90
2017-09-30T01:02:35.790Z,99.90
2017-09-30T01:05:03.552Z,99.90
2017-09-30T01:07:31.302Z,99.90
2017-09-30T01:09:59.116Z,99.90
2017-09-30T01:12:26.894Z,99.90
2017-09-30T01:14:54.653Z,99.90
2017-09-30T01:17:22.464Z,99.90
2017-09-30T01:19:50.236Z,99.90
2017-09-30T01:22:18.007Z,99.90
2017-09-30T01:24:45.826Z,99.90
2017-09-30T01:27:14.364Z,99.90
2017-09-30T01:29:42.151Z,99.90
2017-09-30T01:32:09.987Z,99.90
2017-09-30T01:34:37.755Z,99.90
2017-09-30T01:37:05.559Z,99.90
2017-09-30T01:39:34.188Z,99.90
2017-09-30T01:42:01.943Z,99.90
2017-09-30T01:44:29.701Z,99.90
2017-09-30T01:46:57.526Z,99.90
2017-09-30T01:49:26.042Z,99.90
2017-09-30T01:51:53.811Z,99.90
2017-09-30T01:54:21.635Z,99.90
2017-09-30T01:56:50.169Z,99.90
2017-09-30T01:59:17.923Z,99.90
2017-09-30T02:01:45.749Z,99.90
2017-09-30T02:04:13.519Z,99.90
2017-09-30T02:06:41.292Z,99.90
2017-09-30T02:09:09.118Z,99.90
2017-09-30T02:11:37.656Z,99.90
2017-09-30T02:14:06.204Z,99.90
2017-09-30T02:16:34.027Z,99.90
2017-09-30T02:19:01.792Z,99.90
2017-09-30T02:21:29.553Z,99.90
2017-09-30T02:23:57.374Z,99.90
2017-09-30T02:26:25.144Z,99.90
2017-09-30T02:28:52.908Z,99.90
2017-09-30T02:31:20.732Z,99.90
2017-09-30T02:33:48.497Z,99.90
2017-09-30T02:36:16.269Z,99.90
2017-09-30T02:38:44.190Z,99.90
2017-09-30T02:41:11.956Z,99.90
2017-09-30T02:43:40.485Z,99.90
2017-09-30T02:46:08.315Z,99.90
2017-09-30T02:48:36.836Z,99.90
2017-09-30T02:51:04.606Z,99.90
2017-09-30T02:53:32.427Z,99.90
2017-09-30T02:56:00.207Z,99.90
2017-09-30T02:58:27.988Z,99.90
2017-09-30T03:00:55.797Z,99.90
2017-09-30T03:03:24.328Z,99.90
2017-09-30T03:05:52.092Z,99.90
2017-09-30T03:08:19.969Z,99.90
2017-09-30T03:10:47.745Z,99.90
2017-09-30T03:13:15.517Z,99.90
2017-09-30T03:15:44.112Z,99.90
2017-09-30T03:18:11.887Z,99.90
2017-09-30T03:20:39.657Z,99.90
2017-09-30T03:23:07.488Z,99.90
2017-09-30T03:25:36.021Z,99.90
2017-09-30T03:28:03.783Z,99.90
2017-09-30T03:30:31.620Z,99.90
2017-09-30T03:32:59.395Z,99.90
2017-09-30T03:35:27.169Z,99.90
2017-09-30T03:37:55.000Z,99.90
2017-09-30T03:40:22.764Z,99.90
2017-09-30T03:42:50.529Z,99.90
2017-09-30T03:45:18.360Z,99.90
2017-09-30T03:47:46.899Z,99.90
2017-09-30T03:50:14.665Z,99.90
2017-09-30T03:52:42.491Z,99.90
2017-09-30T03:55:10.252Z,99.90
2017-09-30T03:57:38.027Z,99.90
2017-09-30T04:00:05.873Z,99.90
2017-09-30T04:02:33.641Z,99.90
2017-09-30T04:05:01.417Z,99.90
2017-09-30T04:07:29.249Z,99.90
2017-09-30T04:09:57.791Z,99.90
2017-09-30T04:12:25.592Z,99.90
2017-09-30T04:14:54.201Z,99.90
2017-09-30T04:17:21.985Z,99.90
2017-09-30T04:19:49.761Z,99.90
2017-09-30T04:22:17.587Z,99.90
2017-09-30T04:24:45.356Z,99.90
2017-09-30T04:27:13.139Z,99.90
2017-09-30T04:29:40.966Z,99.90
2017-09-30T04:32:08.735Z,99.90
2017-09-30T04:34:36.504Z,99.90
2017-09-30T04:37:04.358Z,99.90
2017-09-30T04:39:32.129Z,99.90
2017-09-30T04:41:59.899Z,99.90
2017-09-30T04:44:27.724Z,99.90
2017-09-30T04:46:56.258Z,99.90
2017-09-30T04:49:24.032Z,99.90
2017-09-30T04:51:51.873Z,99.90
2017-09-30T04:54:19.661Z,99.90
2017-09-30T04:56:47.449Z,99.90
2017-09-30T04:59:16.048Z,99.90
2017-09-30T05:01:43.842Z,99.90
2017-09-30T05:04:11.627Z,99.90
2017-09-30T05:06:39.467Z,99.90
2017-09-30T05:09:07.245Z,99.90
2017-09-30T05:11:35.011Z,99.90
2017-09-30T05:14:02.833Z,99.90
2017-09-30T05:16:30.643Z,99.90
2017-09-30T05:18:58.415Z,99.90
2017-09-30T05:21:27.021Z,99.90
2017-09-30T05:23:54.800Z,99.90
2017-09-30T05:26:22.599Z,99.90
2017-09-30T05:28:50.428Z,99.90
2017-09-30T05:31:18.195Z,99.90
2017-09-30T05:33:45.957Z,99.90
2017-09-30T05:36:13.837Z,99.90
2017-09-30T05:38:41.604Z,99.90
2017-09-30T05:41:09.383Z,99.90
2017-09-30T05:43:37.262Z,99.90
2017-09-30T05:46:05.042Z,99.90
2017-09-30T05:48:33.569Z,99.90
2017-09-30T05:51:01.393Z,99.90
2017-09-30T05:53:29.172Z,99.90
2017-09-30T05:55:56.944Z,99.90
2017-09-30T05:58:24.772Z,99.90
2017-09-30T06:00:53.340Z,99.90
2017-09-30T06:03:21.922Z,99.90
2017-09-30T06:05:50.511Z,99.90
2017-09-30T06:08:18.271Z,99.90
2017-09-30T06:10:46.799Z,99.20
2017-09-30T06:13:14.654Z,99.20
2017-09-30T06:15:42.430Z,98.00
2017-09-30T06:18:10.191Z,95.80
2017-09-30T06:20:38.027Z,93.40
2017-09-30T06:23:05.800Z,93.40
2017-09-30T06:25:33.559Z,93.10
2017-09-30T06:28:01.375Z,93.30
2017-09-30T06:30:29.143Z,96.60
2017-09-30T06:32:58.827Z,95.50
2017-09-30T06:35:27.430Z,94.50
2017-09-30T06:37:55.952Z,93.50
2017-09-30T06:40:23.715Z,93.50
2017-09-30T06:42:51.553Z,92.90
2017-09-30T06:45:19.316Z,92.90
2017-09-30T06:47:47.089Z,92.20
2017-09-30T06:50:14.915Z,92.10
2017-09-30T06:52:50.740Z,86.10
2017-09-30T06:55:18.564Z,71.00
2017-09-30T06:57:46.315Z,70.10
2017-09-30T07:00:14.078Z,72.80
2017-09-30T07:02:41.893Z,67.00
2017-09-30T07:05:09.659Z,61.00
2017-09-30T07:07:37.418Z,49.90
2017-09-30T07:10:05.237Z,42.80
2017-09-30T07:12:32.991Z,39.10
2017-09-30T07:15:00.755Z,34.50
2017-09-30T07:17:28.571Z,33.30
2017-09-30T07:19:56.327Z,34.20
2017-09-30T07:22:24.087Z,32.00
2017-09-30T07:24:51.906Z,32.00
2017-09-30T07:27:19.668Z,30.70
2017-09-30T07:29:47.420Z,28.20
2017-09-30T07:32:15.236Z,29.10
2017-09-30T07:34:43.007Z,27.60
2017-09-30T07:37:10.784Z,27.30
2017-09-30T07:39:38.596Z,26.80
2017-09-30T07:42:06.400Z,26.50
2017-09-30T07:44:34.168Z,24.90
2017-09-30T07:47:01.998Z,23.80
2017-09-30T07:49:29.768Z,23.60
2017-09-30T07:51:57.541Z,24.10
2017-09-30T07:54:25.367Z,24.70
2017-09-30T07:56:53.142Z,24.90
2017-09-30T07:59:20.899Z,24.00
2017-09-30T08:01:48.714Z,23.50
2017-09-30T08:04:17.235Z,21.90
2017-09-30T08:06:44.999Z,21.90
2017-09-30T08:09:12.817Z,21.10
2017-09-30T08:11:41.383Z,21.10
2017-09-30T08:14:09.744Z,21.10
2017-09-30T08:16:37.559Z,20.90
2017-09-30T08:19:05.394Z,20.80
2017-09-30T08:21:33.196Z,21.80
2017-09-30T08:24:01.015Z,21.50
2017-09-30T08:26:28.940Z,21.20
2017-09-30T08:28:57.099Z,22.90
2017-09-30T08:31:24.924Z,22.10
2017-09-30T08:33:53.476Z,21.70
2017-09-30T08:36:21.310Z,21.70
2017-09-30T08:38:49.123Z,22.00
2017-09-30T08:41:16.883Z,23.10
2017-09-30T08:43:45.464Z,23.30
2017-09-30T08:48:50.151Z,23.60
2017-09-30T08:51:18.819Z,24.50
2017-09-30T08:53:46.597Z,26.60
2017-09-30T08:56:14.374Z,27.90
2017-09-30T08:58:43.006Z,28.80
2017-09-30T09:01:11.531Z,26.30
2017-09-30T09:03:39.293Z,26.50
2017-09-30T09:06:07.105Z,25.50
2017-09-30T09:08:35.632Z,26.40
2017-09-30T09:11:03.390Z,26.40
2017-09-30T09:13:31.216Z,29.10
2017-09-30T09:15:59.747Z,34.50
2017-09-30T09:18:27.504Z,34.50
2017-09-30T09:20:55.314Z,41.10
2017-09-30T09:23:23.850Z,48.00
2017-09-30T09:25:51.625Z,48.00
2017-09-30T09:28:19.443Z,44.00
2017-09-30T09:30:47.199Z,44.90
2017-09-30T09:33:15.010Z,43.10
2017-09-30T09:35:42.839Z,45.30
2017-09-30T09:38:10.604Z,44.80
2017-09-30T09:40:38.391Z,43.80
2017-09-30T09:43:06.215Z,44.50
2017-09-30T09:45:33.970Z,44.70
2017-09-30T09:48:01.727Z,48.10
2017-09-30T09:50:31.400Z,48.80
2017-09-30T09:52:59.159Z,48.80
2017-09-30T09:55:26.924Z,46.40
2017-09-30T09:57:54.732Z,47.10
2017-09-30T10:00:22.495Z,47.10
2017-09-30T10:02:50.257Z,47.20
2017-09-30T10:05:18.072Z,46.90
2017-09-30T10:07:45.831Z,45.40
2017-09-30T10:10:13.608Z,47.60
2017-09-30T10:12:41.423Z,48.50
2017-09-30T10:15:09.207Z,50.00
2017-09-30T10:17:36.964Z,50.90
2017-09-30T10:20:04.781Z,47.30
2017-09-30T10:22:32.542Z,48.00
2017-09-30T10:25:00.303Z,49.00
2017-09-30T10:27:28.127Z,49.90
2017-09-30T10:29:55.899Z,48.90
2017-09-30T10:32:23.660Z,45.30
2017-09-30T10:34:52.039Z,46.80
2017-09-30T10:37:19.804Z,46.40
2017-09-30T10:39:47.559Z,46.40
2017-09-30T10:42:15.375Z,46.80
2017-09-30T10:44:43.128Z,48.70
2017-09-30T10:47:10.884Z,49.00
2017-09-30T10:49:38.699Z,47.90
2017-09-30T10:52:06.461Z,47.80
2017-09-30T10:54:34.225Z,49.70
2017-09-30T10:57:02.039Z,49.00
2017-09-30T10:59:29.792Z,49.30
2017-09-30T11:01:57.555Z,48.80
2017-09-30T11:04:25.376Z,46.00
2017-09-30T11:06:53.144Z,47.10
2017-09-30T11:09:20.912Z,46.10
2017-09-30T11:11:49.570Z,45.20
2017-09-30T11:14:17.329Z,45.20
2017-09-30T11:16:45.088Z,46.90
2017-09-30T11:19:12.899Z,48.40
2017-09-30T11:21:40.662Z,40.70
2017-09-30T11:24:08.427Z,40.80
2017-09-30T11:26:36.244Z,42.50
2017-09-30T11:29:04.008Z,42.60
2017-09-30T11:31:31.758Z,43.00
2017-09-30T11:33:59.572Z,42.70
2017-09-30T11:36:27.319Z,37.90
2017-09-30T11:38:55.838Z,37.10
2017-09-30T11:41:23.657Z,37.10
2017-09-30T11:43:52.176Z,37.30
2017-09-30T11:46:19.944Z,37.10
2017-09-30T11:48:47.760Z,38.30
2017-09-30T11:51:16.309Z,37.20
2017-09-30T11:53:44.065Z,37.20
2017-09-30T11:56:11.876Z,38.30
2017-09-30T11:58:40.401Z,37.80
2017-09-30T12:01:08.159Z,37.80
2017-09-30T12:03:35.984Z,39.10
2017-09-30T12:06:04.504Z,39.50
2017-09-30T12:08:32.264Z,39.50
2017-09-30T12:11:00.079Z,40.70
2017-09-30T12:13:28.599Z,41.20
2017-09-30T12:15:56.353Z,41.10
2017-09-30T12:18:24.164Z,40.20
2017-09-30T12:20:51.962Z,40.10
2017-09-30T12:23:19.715Z,40.10
2017-09-30T12:25:48.287Z,40.00
2017-09-30T12:28:16.821Z,43.50
2017-09-30T12:30:44.572Z,43.00
2017-09-30T12:33:14.610Z,40.60
2017-09-30T12:35:42.405Z,44.70
2017-09-30T12:38:11.092Z,36.30
2017-09-30T12:40:39.783Z,35.20
2017-09-30T12:43:07.547Z,35.20
2017-09-30T12:45:35.467Z,34.70
2017-09-30T12:48:03.320Z,34.80
2017-09-30T12:50:31.192Z,33.20
2017-09-30T12:52:59.466Z,35.00
2017-09-30T12:55:30.421Z,34.00
2017-09-30T12:58:03.123Z,32.40
2017-09-30T13:00:30.950Z,32.50
2017-09-30T13:02:58.715Z,34.00
2017-09-30T13:05:26.530Z,33.90
2017-09-30T13:07:54.362Z,33.80
2017-09-30T13:10:22.881Z,33.90
2017-09-30T13:12:50.635Z,34.60
2017-09-30T13:15:18.456Z,33.20
2017-09-30T13:17:46.216Z,34.00
2017-09-30T13:20:13.994Z,32.60
2017-09-30T13:22:42.588Z,32.20
2017-09-30T13:25:10.345Z,32.20
2017-09-30T13:27:38.110Z,33.20
2017-09-30T13:30:05.939Z,31.40
2017-09-30T13:32:33.699Z,31.80
2017-09-30T13:35:01.449Z,29.40
2017-09-30T13:37:29.264Z,29.50
2017-09-30T13:39:57.021Z,29.10
2017-09-30T13:42:24.793Z,28.80
2017-09-30T13:44:52.610Z,29.00
2017-09-30T13:47:20.372Z,28.70
2017-09-30T13:49:48.127Z,28.90
2017-09-30T13:52:15.941Z,29.50
2017-09-30T13:54:43.714Z,29.10
2017-09-30T13:57:11.468Z,30.80
2017-09-30T13:59:39.271Z,29.30
2017-09-30T14:02:07.034Z,30.00
2017-09-30T14:04:34.801Z,29.50
2017-09-30T14:07:02.621Z,30.00
2017-09-30T14:09:30.374Z,29.60
2017-09-30T14:11:58.130Z,30.00
2017-09-30T14:14:25.958Z,31.60
2017-09-30T14:16:54.505Z,30.90
2017-09-30T14:19:22.267Z,30.80
2017-09-30T14:21:50.074Z,31.90
2017-09-30T14:24:18.603Z,31.50
2017-09-30T14:26:46.371Z,32.20
2017-09-30T14:29:14.183Z,31.40
2017-09-30T14:31:42.851Z,32.90
2017-09-30T14:34:10.611Z,33.00
2017-09-30T14:36:38.420Z,33.60
2017-09-30T14:39:06.177Z,33.30
2017-09-30T14:41:33.928Z,33.50
2017-09-30T14:44:01.731Z,34.10
2017-09-30T14:46:29.488Z,34.40
2017-09-30T14:48:58.009Z,34.80
2017-09-30T14:51:26.946Z,35.70
2017-09-30T14:53:55.012Z,35.50
2017-09-30T14:56:22.769Z,35.20
2017-09-30T14:58:50.582Z,36.60
2017-09-30T15:01:18.352Z,36.20
2017-09-30T15:03:46.862Z,37.10
2017-09-30T15:06:14.700Z,36.90
2017-09-30T15:08:42.481Z,35.60
2017-09-30T15:11:10.244Z,35.20
2017-09-30T15:13:38.060Z,36.10
2017-09-30T15:16:05.807Z,35.00
2017-09-30T15:18:33.563Z,34.40
2017-09-30T15:21:01.363Z,35.60
2017-09-30T15:23:29.899Z,36.50
2017-09-30T15:25:57.656Z,36.60
2017-09-30T15:28:25.459Z,35.00
2017-09-30T15:30:53.495Z,35.00
2017-09-30T15:33:21.251Z,35.70
2017-09-30T15:35:49.248Z,36.90
2017-09-30T15:38:17.006Z,36.80
2017-09-30T15:40:44.771Z,36.80
2017-09-30T15:43:12.591Z,38.00
2017-09-30T15:45:40.364Z,38.30
2017-09-30T15:48:08.125Z,39.40
2017-09-30T15:50:35.938Z,38.50
2017-09-30T15:53:04.468Z,39.50
2017-09-30T15:55:32.231Z,39.50
2017-09-30T15:58:00.040Z,39.90
2017-09-30T16:00:27.815Z,39.20
2017-09-30T16:02:56.365Z,42.60
2017-09-30T16:05:24.183Z,42.50
2017-09-30T16:07:51.933Z,43.40
2017-09-30T16:10:19.688Z,43.30
2017-09-30T16:12:47.507Z,43.30
2017-09-30T16:15:15.259Z,44.40
2017-09-30T16:17:43.788Z,46.10
2017-09-30T16:20:12.368Z,46.80
2017-09-30T16:22:40.139Z,46.80
2017-09-30T16:25:07.917Z,46.70
2017-09-30T16:27:35.742Z,48.60
2017-09-30T16:30:04.293Z,50.10
2017-09-30T16:32:32.048Z,50.20
2017-09-30T16:34:59.864Z,51.20
2017-09-30T16:37:27.628Z,51.80
2017-09-30T16:39:55.413Z,52.40
2017-09-30T16:42:23.227Z,53.20
2017-09-30T16:44:51.024Z,54.10
2017-09-30T16:47:18.840Z,55.80
2017-09-30T16:49:47.542Z,55.90
2017-09-30T16:52:16.068Z,59.00
2017-09-30T16:54:43.831Z,59.00
2017-09-30T16:57:11.648Z,59.40
2017-09-30T16:59:40.177Z,60.40
2017-09-30T17:02:07.935Z,60.40
2017-09-30T17:04:35.743Z,61.60
2017-09-30T17:07:03.502Z,63.00
2017-09-30T17:09:31.268Z,64.00
2017-09-30T17:11:59.086Z,66.60
2017-09-30T17:14:26.845Z,68.40
2017-09-30T17:16:54.613Z,70.80
2017-09-30T17:19:22.432Z,71.60
2017-09-30T17:21:50.963Z,74.40
2017-09-30T17:24:19.488Z,75.20
2017-09-30T17:26:48.070Z,76.00
2017-09-30T17:29:16.601Z,75.60
2017-09-30T17:31:44.359Z,75.60
2017-09-30T17:34:12.169Z,76.90
2017-09-30T17:36:40.710Z,80.30
2017-09-30T17:39:08.462Z,80.30
2017-09-30T17:41:36.282Z,80.90
2017-09-30T17:44:04.818Z,83.30
2017-09-30T17:46:32.584Z,83.30
2017-09-30T17:49:00.427Z,84.30
2017-09-30T17:51:28.196Z,86.50
2017-09-30T17:53:55.971Z,86.20
2017-09-30T17:56:23.792Z,86.80
2017-09-30T17:58:51.551Z,86.30
2017-09-30T18:01:19.307Z,86.50
2017-09-30T18:03:47.128Z,86.30
2017-09-30T18:06:14.896Z,87.30
2017-09-30T18:08:42.663Z,87.10
2017-09-30T18:11:10.503Z,87.00
2017-09-30T18:13:38.436Z,87.10
2017-09-30T18:16:06.200Z,88.20
2017-09-30T18:18:34.025Z,88.70
2017-09-30T18:21:03.072Z,88.10
2017-09-30T18:23:30.831Z,88.10
2017-09-30T18:26:00.319Z,89.00
2017-09-30T18:28:28.072Z,89.00
2017-09-30T18:30:55.830Z,90.10
2017-09-30T18:33:23.667Z,90.20
2017-09-30T18:35:52.189Z,90.60
2017-09-30T18:38:19.948Z,90.60
2017-09-30T18:40:47.762Z,90.60
2017-09-30T18:43:16.293Z,91.00
2017-09-30T18:45:44.097Z,91.20
2017-09-30T18:48:11.920Z,92.40
2017-09-30T18:50:39.687Z,92.60
2017-09-30T18:53:07.448Z,93.00
2017-09-30T18:55:35.407Z,93.20
2017-09-30T18:58:04.257Z,93.60
2017-09-30T19:00:33.705Z,94.10
2017-09-30T19:03:01.674Z,94.10
2017-09-30T19:05:29.551Z,93.90
2017-09-30T19:07:57.332Z,94.30
2017-09-30T19:10:25.180Z,94.60
2017-09-30T19:12:52.946Z,95.10
2017-09-30T19:15:20.713Z,95.10
2017-09-30T19:17:48.535Z,95.50
2017-09-30T19:20:16.291Z,95.50
2017-09-30T19:22:44.052Z,95.80
2017-09-30T19:25:11.881Z,95.80
2017-09-30T19:27:40.412Z,96.20
2017-09-30T19:30:08.171Z,96.20
2017-09-30T19:32:35.988Z,96.50
2017-09-30T19:35:04.517Z,96.60
2017-09-30T19:37:32.285Z,96.60
2017-09-30T19:40:00.100Z,96.70
2017-09-30T19:42:28.625Z,96.80
2017-09-30T19:44:56.388Z,96.80
2017-09-30T19:47:24.211Z,96.50
2017-09-30T19:49:51.966Z,96.10
2017-09-30T19:52:20.494Z,95.90
2017-09-30T19:54:48.319Z,95.80
2017-09-30T19:57:16.080Z,95.60
2017-09-30T19:59:43.850Z,95.70
2017-09-30T20:02:11.676Z,96.00
2017-09-30T20:04:39.437Z,96.00
2017-09-30T20:07:07.203Z,96.10
2017-09-30T20:09:35.814Z,96.30
2017-09-30T20:12:03.575Z,96.30
2017-09-30T20:14:31.337Z,96.30
2017-09-30T20:16:59.157Z,96.50
2017-09-30T20:19:26.918Z,96.60
2017-09-30T20:21:54.679Z,96.80
2017-09-30T20:24:22.497Z,97.00
2017-09-30T20:26:50.269Z,96.90
2017-09-30T20:29:18.033Z,96.90
2017-09-30T20:31:45.863Z,96.90
2017-09-30T20:34:13.619Z,97.00
2017-09-30T20:36:42.151Z,97.40
2017-09-30T20:39:09.969Z,97.40
2017-09-30T20:41:37.735Z,97.60
2017-09-30T20:44:05.504Z,97.60
2017-09-30T20:46:33.326Z,97.80
2017-09-30T20:49:01.094Z,97.90
2017-09-30T20:51:28.863Z,98.60
2017-09-30T20:53:57.452Z,99.30
2017-09-30T20:56:25.228Z,99.30
2017-09-30T20:58:52.985Z,99.50
2017-09-30T21:01:20.806Z,99.60
2017-09-30T21:03:48.556Z,99.90
2017-09-30T21:06:16.312Z,99.90
2017-09-30T21:08:44.128Z,99.40
2017-09-30T21:11:11.890Z,99.90
2017-09-30T21:13:39.663Z,99.90
2017-09-30T21:16:07.483Z,99.90
2017-09-30T21:18:35.256Z,99.90
2017-09-30T21:21:03.794Z,99.90
2017-09-30T21:23:31.603Z,99.90
2017-09-30T21:26:00.132Z,99.90
2017-09-30T21:28:27.892Z,99.90
2017-09-30T21:30:55.722Z,99.90
2017-09-30T21:33:23.488Z,99.90
2017-09-30T21:35:51.247Z,99.90
2017-09-30T21:38:19.071Z,99.90
2017-09-30T21:40:46.831Z,99.90
2017-09-30T21:43:14.577Z,99.90
2017-09-30T21:45:42.387Z,99.90
2017-09-30T21:48:10.922Z,99.90
2017-09-30T21:50:38.670Z,99.90
2017-09-30T21:53:06.500Z,99.90
2017-09-30T21:55:34.251Z,99.90
2017-09-30T21:58:02.786Z,99.90
2017-09-30T22:00:30.607Z,99.90
2017-09-30T22:02:58.362Z,99.90
2017-09-30T22:05:26.110Z,99.90
2017-09-30T22:07:54.691Z,99.90
2017-09-30T22:10:23.217Z,99.90
2017-09-30T22:12:50.987Z,99.90
2017-09-30T22:15:18.824Z,99.90
2017-09-30T22:17:46.581Z,99.90
2017-09-30T22:20:14.340Z,99.90
2017-09-30T22:22:42.154Z,99.90
2017-09-30T22:25:09.912Z,99.90
2017-09-30T22:27:37.668Z,99.90
2017-09-30T22:30:05.484Z,99.90
2017-09-30T22:32:33.246Z,99.90
2017-09-30T22:35:01.008Z,99.90
2017-09-30T22:37:28.831Z,99.90
2017-09-30T22:39:56.583Z,99.90
2017-09-30T22:42:24.340Z,99.90
2017-09-30T22:44:52.161Z,99.90
2017-09-30T22:47:19.915Z,99.90
2017-09-30T22:49:47.664Z,99.90
2017-09-30T22:52:16.243Z,99.90
2017-09-30T22:54:44.764Z,99.90
2017-09-30T22:57:12.517Z,99.90
2017-09-30T22:59:40.341Z,99.90
2017-09-30T23:02:08.123Z,99.90
2017-09-30T23:04:35.883Z,99.90
2017-09-30T23:07:03.691Z,99.90
2017-09-30T23:09:31.445Z,99.90
2017-09-30T23:11:59.199Z,99.90
2017-09-30T23:14:27.008Z,99.90
2017-09-30T23:16:54.754Z,99.90
2017-09-30T23:19:22.511Z,99.90
2017-09-30T23:21:50.333Z,99.90
2017-09-30T23:24:18.096Z,99.90
2017-09-30T23:26:45.851Z,99.90
2017-09-30T23:29:13.668Z,99.90
2017-09-30T23:31:41.425Z,99.90
2017-09-30T23:34:09.190Z,99.90
2017-09-30T23:36:36.998Z,99.90
2017-09-30T23:39:04.760Z,99.90
2017-09-30T23:41:32.519Z,99.90
2017-09-30T23:44:00.349Z,99.90
2017-09-30T23:46:28.120Z,99.90
2017-09-30T23:48:56.636Z,99.90
2017-09-30T23:51:24.448Z,99.90
2017-09-30T23:53:52.198Z,99.90
2017-09-30T23:56:19.952Z,99.90
2017-09-30T23:58:47.802Z,99.90
